Admiral — WCY6529 — position and weather

sailwx.info

Track history (hours):
 
Tides and Currents Weather Stations Pressure Air Temp Water Temp Dewpoint Dewpoint Depression Visibility Wind Speed Wind Dir Waves Ship Positions

Admiral

Owner: Crowley Marine Services, SEATTLE, WA. More information available from US FCC via Universal Licensing System and Coast Guard Vessel Documentation Center.

Last reported at 2017-Feb-24 22:31 UTC. Time now 2017-Feb-25 09:05 UTC.
Position N 33°44' W 118°17'.

; draft 5.3 m.

Type: Tug. MMSI: 366755020.

Date/timePositionNaut miles runAvg speedWind from/ knotsBaromVisibWave heightAir tempDewpointWater temp
2017-Feb-24 22:31N 33°44' W 118°17'0 0.0
2017-Feb-24 20:15N 33°44' W 118°17'0 0.0
2017-Feb-24 19:22N 33°44' W 118°17'0 0.0
2017-Feb-24 15:31N 33°44' W 118°17'0 0.0
2017-Feb-24 14:33N 33°44' W 118°17'0 0.0
2017-Feb-24 13:32N 33°44' W 118°17'0 0.0
2017-Feb-24 12:33N 33°44' W 118°17'0 0.0
2017-Feb-24 11:33N 33°44' W 118°17'0 0.0
2017-Feb-24 10:16N 33°44' W 118°17'0 0.0
2017-Feb-24 09:33N 33°44' W 118°17'0 0.0
2017-Feb-24 08:33N 33°44' W 118°17'1 0.1
2017-Feb-23 12:24N 33°44' W 118°15'2 1.2
2017-Feb-23 10:31N 33°46' W 118°15'2 2.2
2017-Feb-23 09:25N 33°44' W 118°16'0 0.5
2017-Feb-23 08:30N 33°43' W 118°16'1 0.6
2017-Feb-23 06:29N 33°44' W 118°17'4 0.2
2017-Feb-22 12:34N 33°44' W 118°12'1 1.0
2017-Feb-22 11:31N 33°43' W 118°13'3 3.3
2017-Feb-22 10:33N 33°44' W 118°17'0 0.0
2017-Feb-22 09:33N 33°44' W 118°17'0 0.0
2017-Feb-22 08:28N 33°44' W 118°17'2 2.0
2017-Feb-22 07:33N 33°46' W 118°15'3 3.1
2017-Feb-22 06:33N 33°43' W 118°15'2 2.4
2017-Feb-22 05:33N 33°44' W 118°17'0 0.0
2017-Feb-22 04:33N 33°44' W 118°17'0 0.0
2017-Feb-22 03:33N 33°44' W 118°17'0 0.0
2017-Feb-22 02:33N 33°44' W 118°17'0 0.0
2017-Feb-22 01:30N 33°44' W 118°17'0 0.0
2017-Feb-22 00:33N 33°44' W 118°17'0 0.0
2017-Feb-21 23:33N 33°44' W 118°17'0 0.0
2017-Feb-21 22:33N 33°44' W 118°17'0 0.0
2017-Feb-21 21:28N 33°44' W 118°17'0 0.0
2017-Feb-21 20:33N 33°44' W 118°17'4 3.5
2017-Feb-21 19:31N 33°46' W 118°13'0 0.3
2017-Feb-21 18:30N 33°46' W 118°13'2 2.6
2017-Feb-21 17:33N 33°44' W 118°12'3 2.4
2017-Feb-21 16:31N 33°46' W 118°13'3 1.6
2017-Feb-21 14:27N 33°44' W 118°10'4 3.1
2017-Feb-21 13:05N 33°44' W 118°15'1 2.1
2017-Feb-21 12:29N 33°43' W 118°15'2 1.2
2017-Feb-21 10:26N 33°45' W 118°17'0 0.2
2017-Feb-21 09:29N 33°44' W 118°17'  
2017-Feb-18 04:33N 33°43' W 118°14'2 0.1
2017-Feb-17 13:07N 33°44' W 118°16'0 0.3
2017-Feb-17 11:33N 33°43' W 118°16'1 1.4
2017-Feb-17 10:30N 33°44' W 118°17'0 0.0
2017-Feb-17 09:31N 33°44' W 118°17'0 0.0
2017-Feb-17 08:12N 33°44' W 118°17'1 1.2
2017-Feb-17 07:32N 33°44' W 118°16'1 0.7
2017-Feb-17 06:09N 33°45' W 118°16'3 4.4
2017-Feb-17 05:33N 33°44' W 118°13'2 2.3
2017-Feb-17 04:33N 33°46' W 118°13'1 1.5
2017-Feb-17 03:33N 33°45' W 118°14'2 2.4
2017-Feb-17 02:33N 33°44' W 118°16'2 2.0
2017-Feb-17 01:33N 33°46' W 118°16'0 0.1
2017-Feb-17 00:33N 33°46' W 118°16'1 1.5
2017-Feb-16 23:33N 33°44' W 118°17'0 0.0
2017-Feb-16 22:33N 33°44' W 118°17'0 0.0
2017-Feb-16 21:33N 33°44' W 118°17'0 0.0
2017-Feb-16 20:33N 33°44' W 118°17'0 0.0
2017-Feb-16 19:33N 33°44' W 118°17'3 2.7
2017-Feb-16 18:33N 33°44' W 118°13'2 1.6
2017-Feb-16 17:33N 33°46' W 118°13'2 1.6
2017-Feb-16 16:33N 33°44' W 118°13'2 1.8
2017-Feb-16 15:33N 33°43' W 118°11'4 3.9
2017-Feb-16 14:33N 33°43' W 118°16'1 1.0
2017-Feb-16 13:08N 33°44' W 118°17'0 0.0
2017-Feb-16 12:33N 33°44' W 118°17'0 0.0
2017-Feb-16 11:33N 33°44' W 118°17'0 0.0
2017-Feb-16 10:33N 33°44' W 118°17'0 0.0
2017-Feb-16 09:33N 33°44' W 118°17'0 0.0
2017-Feb-16 08:33N 33°44' W 118°17'0 0.0
2017-Feb-16 07:33N 33°44' W 118°17'0 0.0
2017-Feb-16 06:33N 33°44' W 118°17'0 0.0
2017-Feb-16 05:33N 33°44' W 118°17'0 0.0
2017-Feb-16 04:33N 33°44' W 118°17'0 0.0
2017-Feb-16 03:33N 33°44' W 118°17'0 0.0
2017-Feb-16 02:33N 33°44' W 118°17'2 1.6
2017-Feb-16 01:33N 33°43' W 118°16'4 3.6
2017-Feb-16 00:33N 33°46' W 118°13'0 0.5
2017-Feb-15 23:33N 33°46' W 118°13'3 3.5
2017-Feb-15 22:33N 33°44' W 118°10'3 3.4
2017-Feb-15 21:33N 33°43' W 118°14'3 2.7
2017-Feb-15 20:33N 33°44' W 118°17'0 0.0
2017-Feb-15 19:34N 33°44' W 118°17'0 0.0
2017-Feb-15 18:33N 33°44' W 118°17'1 1.3
2017-Feb-15 17:33N 33°46' W 118°16'1 1.5
2017-Feb-15 16:33N 33°44' W 118°17'1 1.0
2017-Feb-15 15:33N 33°44' W 118°15'0 0.0
2017-Feb-15 14:32N 33°44' W 118°15'0 0.2
2017-Feb-15 13:34N 33°44' W 118°16'1 1.3
2017-Feb-15 12:33N 33°43' W 118°14'2 2.4
2017-Feb-15 11:33N 33°44' W 118°17'0 0.0
2017-Feb-15 10:33N 33°44' W 118°17'0 0.0
2017-Feb-15 09:33N 33°44' W 118°17'2 1.9
2017-Feb-15 08:33N 33°43' W 118°15'4 4.1
2017-Feb-15 07:33N 33°46' W 118°13'1 0.6
2017-Feb-15 06:33N 33°46' W 118°14'0 0.1
2017-Feb-15 05:32N 33°46' W 118°13'0 0.1
2017-Feb-15 04:33N 33°46' W 118°13'3 3.3
2017-Feb-15 03:33N 33°44' W 118°17'0 0.0
2017-Feb-15 02:33N 33°44' W 118°17'4 3.5
2017-Feb-15 01:33N 33°45' W 118°12'2 2.1
2017-Feb-15 00:33N 33°44' W 118°10'4 3.9
2017-Feb-14 23:33N 33°46' W 118°14'  
Track history (hours):
 
Tides and Currents Weather Stations Pressure Air Temp Water Temp Dewpoint Dewpoint Depression Visibility Wind Speed Wind Dir Waves Ship Positions

Admiral

Owner: Crowley Marine Services, SEATTLE, WA. More information available from US FCC via Universal Licensing System and Coast Guard Vessel Documentation Center.

Last reported at 2017-Feb-24 22:31 UTC. Time now 2017-Feb-25 09:05 UTC.
Position N 33°44' W 118°17'.

; draft 5.3 m.

Type: Tug. MMSI: 366755020.

Date/timePositionNaut miles runAvg speedWind from/ knotsBaromVisibWave heightAir tempDewpointWater temp
2017-Feb-24 22:31N 33°44' W 118°17'0 0.0
2017-Feb-24 20:15N 33°44' W 118°17'0 0.0
2017-Feb-24 19:22N 33°44' W 118°17'0 0.0
2017-Feb-24 15:31N 33°44' W 118°17'0 0.0
2017-Feb-24 14:33N 33°44' W 118°17'0 0.0
2017-Feb-24 13:32N 33°44' W 118°17'0 0.0
2017-Feb-24 12:33N 33°44' W 118°17'0 0.0
2017-Feb-24 11:33N 33°44' W 118°17'0 0.0
2017-Feb-24 10:16N 33°44' W 118°17'0 0.0
2017-Feb-24 09:33N 33°44' W 118°17'0 0.0
2017-Feb-24 08:33N 33°44' W 118°17'1 0.1
2017-Feb-23 12:24N 33°44' W 118°15'2 1.2
2017-Feb-23 10:31N 33°46' W 118°15'2 2.2
2017-Feb-23 09:25N 33°44' W 118°16'0 0.5
2017-Feb-23 08:30N 33°43' W 118°16'1 0.6
2017-Feb-23 06:29N 33°44' W 118°17'4 0.2
2017-Feb-22 12:34N 33°44' W 118°12'1 1.0
2017-Feb-22 11:31N 33°43' W 118°13'3 3.3
2017-Feb-22 10:33N 33°44' W 118°17'0 0.0
2017-Feb-22 09:33N 33°44' W 118°17'0 0.0
2017-Feb-22 08:28N 33°44' W 118°17'2 2.0
2017-Feb-22 07:33N 33°46' W 118°15'3 3.1
2017-Feb-22 06:33N 33°43' W 118°15'2 2.4
2017-Feb-22 05:33N 33°44' W 118°17'0 0.0
2017-Feb-22 04:33N 33°44' W 118°17'0 0.0
2017-Feb-22 03:33N 33°44' W 118°17'0 0.0
2017-Feb-22 02:33N 33°44' W 118°17'0 0.0
2017-Feb-22 01:30N 33°44' W 118°17'0 0.0
2017-Feb-22 00:33N 33°44' W 118°17'0 0.0
2017-Feb-21 23:33N 33°44' W 118°17'0 0.0
2017-Feb-21 22:33N 33°44' W 118°17'0 0.0
2017-Feb-21 21:28N 33°44' W 118°17'0 0.0
2017-Feb-21 20:33N 33°44' W 118°17'4 3.5
2017-Feb-21 19:31N 33°46' W 118°13'0 0.3
2017-Feb-21 18:30N 33°46' W 118°13'2 2.6
2017-Feb-21 17:33N 33°44' W 118°12'3 2.4
2017-Feb-21 16:31N 33°46' W 118°13'3 1.6
2017-Feb-21 14:27N 33°44' W 118°10'4 3.1
2017-Feb-21 13:05N 33°44' W 118°15'1 2.1
2017-Feb-21 12:29N 33°43' W 118°15'2 1.2
2017-Feb-21 10:26N 33°45' W 118°17'0 0.2
2017-Feb-21 09:29N 33°44' W 118°17'  
2017-Feb-18 04:33N 33°43' W 118°14'2 0.1
2017-Feb-17 13:07N 33°44' W 118°16'0 0.3
2017-Feb-17 11:33N 33°43' W 118°16'1 1.4
2017-Feb-17 10:30N 33°44' W 118°17'0 0.0
2017-Feb-17 09:31N 33°44' W 118°17'0 0.0
2017-Feb-17 08:12N 33°44' W 118°17'1 1.2
2017-Feb-17 07:32N 33°44' W 118°16'1 0.7
2017-Feb-17 06:09N 33°45' W 118°16'3 4.4
2017-Feb-17 05:33N 33°44' W 118°13'2 2.3
2017-Feb-17 04:33N 33°46' W 118°13'1 1.5
2017-Feb-17 03:33N 33°45' W 118°14'2 2.4
2017-Feb-17 02:33N 33°44' W 118°16'2 2.0
2017-Feb-17 01:33N 33°46' W 118°16'0 0.1
2017-Feb-17 00:33N 33°46' W 118°16'1 1.5
2017-Feb-16 23:33N 33°44' W 118°17'0 0.0
2017-Feb-16 22:33N 33°44' W 118°17'0 0.0
2017-Feb-16 21:33N 33°44' W 118°17'0 0.0
2017-Feb-16 20:33N 33°44' W 118°17'0 0.0
2017-Feb-16 19:33N 33°44' W 118°17'3 2.7
2017-Feb-16 18:33N 33°44' W 118°13'2 1.6
2017-Feb-16 17:33N 33°46' W 118°13'2 1.6
2017-Feb-16 16:33N 33°44' W 118°13'2 1.8
2017-Feb-16 15:33N 33°43' W 118°11'4 3.9
2017-Feb-16 14:33N 33°43' W 118°16'1 1.0
2017-Feb-16 13:08N 33°44' W 118°17'0 0.0
2017-Feb-16 12:33N 33°44' W 118°17'0 0.0
2017-Feb-16 11:33N 33°44' W 118°17'0 0.0
2017-Feb-16 10:33N 33°44' W 118°17'0 0.0
2017-Feb-16 09:33N 33°44' W 118°17'0 0.0
2017-Feb-16 08:33N 33°44' W 118°17'0 0.0
2017-Feb-16 07:33N 33°44' W 118°17'0 0.0
2017-Feb-16 06:33N 33°44' W 118°17'0 0.0
2017-Feb-16 05:33N 33°44' W 118°17'0 0.0
2017-Feb-16 04:33N 33°44' W 118°17'0 0.0
2017-Feb-16 03:33N 33°44' W 118°17'0 0.0
2017-Feb-16 02:33N 33°44' W 118°17'2 1.6
2017-Feb-16 01:33N 33°43' W 118°16'4 3.6
2017-Feb-16 00:33N 33°46' W 118°13'0 0.5
2017-Feb-15 23:33N 33°46' W 118°13'3 3.5
2017-Feb-15 22:33N 33°44' W 118°10'3 3.4
2017-Feb-15 21:33N 33°43' W 118°14'3 2.7
2017-Feb-15 20:33N 33°44' W 118°17'0 0.0
2017-Feb-15 19:34N 33°44' W 118°17'0 0.0
2017-Feb-15 18:33N 33°44' W 118°17'1 1.3
2017-Feb-15 17:33N 33°46' W 118°16'1 1.5
2017-Feb-15 16:33N 33°44' W 118°17'1 1.0
2017-Feb-15 15:33N 33°44' W 118°15'0 0.0
2017-Feb-15 14:32N 33°44' W 118°15'0 0.2
2017-Feb-15 13:34N 33°44' W 118°16'1 1.3
2017-Feb-15 12:33N 33°43' W 118°14'2 2.4
2017-Feb-15 11:33N 33°44' W 118°17'0 0.0
2017-Feb-15 10:33N 33°44' W 118°17'0 0.0
2017-Feb-15 09:33N 33°44' W 118°17'2 1.9
2017-Feb-15 08:33N 33°43' W 118°15'4 4.1
2017-Feb-15 07:33N 33°46' W 118°13'1 0.6
2017-Feb-15 06:33N 33°46' W 118°14'0 0.1
2017-Feb-15 05:32N 33°46' W 118°13'0 0.1
2017-Feb-15 04:33N 33°46' W 118°13'3 3.3
2017-Feb-15 03:33N 33°44' W 118°17'0 0.0
2017-Feb-15 02:33N 33°44' W 118°17'4 3.5
2017-Feb-15 01:33N 33°45' W 118°12'2 2.1
2017-Feb-15 00:33N 33°44' W 118°10'4 3.9
2017-Feb-14 23:33N 33°46' W 118°14'  

Dump ship's entire track history